createdAt,value
2019-03-20T00:02:08.469Z,3.52
2019-03-20T00:04:49.693Z,3.55
2019-03-20T00:07:17.103Z,3.58
2019-03-20T00:09:50.521Z,3.58
2019-03-20T00:12:23.906Z,3.58
2019-03-20T00:14:57.403Z,3.55
2019-03-20T00:17:30.794Z,3.49
2019-03-20T00:20:25.958Z,3.35
2019-03-20T00:23:00.205Z,3.30
2019-03-20T00:25:33.585Z,3.37
2019-03-20T00:28:07.069Z,3.37
2019-03-20T00:30:40.505Z,3.39
2019-03-20T00:33:13.965Z,3.42
2019-03-20T00:35:47.387Z,3.41
2019-03-20T00:38:20.885Z,3.43
2019-03-20T00:40:54.322Z,3.42
2019-03-20T00:43:27.769Z,3.42
2019-03-20T00:46:01.093Z,3.42
2019-03-20T00:48:34.478Z,3.37
2019-03-20T00:51:07.926Z,3.39
2019-03-20T00:53:41.342Z,3.34
2019-03-20T00:56:14.739Z,3.31
2019-03-20T00:58:48.130Z,3.33
2019-03-20T01:01:21.715Z,3.32
2019-03-20T01:03:55.082Z,3.34
2019-03-20T01:06:28.508Z,3.30
2019-03-20T01:09:01.954Z,3.33
2019-03-20T01:11:35.338Z,3.35
2019-03-20T01:14:08.767Z,3.41
2019-03-20T01:16:42.127Z,3.41
2019-03-20T01:19:15.558Z,3.39
2019-03-20T01:21:48.867Z,3.40
2019-03-20T01:24:22.294Z,3.41
2019-03-20T01:26:55.644Z,3.40
2019-03-20T01:29:29.039Z,3.38
2019-03-20T01:32:02.459Z,3.37
2019-03-20T01:34:35.949Z,3.38
2019-03-20T01:37:09.342Z,3.34
2019-03-20T01:39:42.777Z,3.36
2019-03-20T01:42:16.159Z,3.37
2019-03-20T01:44:49.573Z,3.38
2019-03-20T01:47:23.025Z,3.41
2019-03-20T01:49:56.443Z,3.43
2019-03-20T01:52:29.865Z,3.45
2019-03-20T01:55:03.332Z,3.46
2019-03-20T01:57:36.718Z,3.46
2019-03-20T02:00:11.432Z,3.46
2019-03-20T02:02:45.018Z,3.45
2019-03-20T02:05:18.509Z,3.44
2019-03-20T02:07:51.913Z,3.43
2019-03-20T02:10:25.415Z,3.44
2019-03-20T02:12:59.029Z,3.43
2019-03-20T02:15:38.705Z,3.34
2019-03-20T02:18:07.642Z,3.29
2019-03-20T02:20:41.160Z,3.30
2019-03-20T02:23:14.483Z,3.29
2019-03-20T02:25:47.848Z,3.32
2019-03-20T02:28:21.195Z,3.34
2019-03-20T02:30:54.542Z,3.33
2019-03-20T02:33:27.887Z,3.34
2019-03-20T02:36:01.424Z,3.34
2019-03-20T02:38:34.856Z,3.35
2019-03-20T02:41:08.272Z,3.34
2019-03-20T02:43:41.687Z,3.36
2019-03-20T02:46:15.130Z,3.30
2019-03-20T02:48:48.581Z,3.30
2019-03-20T02:51:21.941Z,3.27
2019-03-20T02:53:55.409Z,3.25
2019-03-20T02:56:28.884Z,3.25
2019-03-20T02:59:02.389Z,3.25
2019-03-20T03:01:35.806Z,3.25
2019-03-20T03:04:09.232Z,3.24
2019-03-20T03:06:42.649Z,3.27
2019-03-20T03:09:16.062Z,3.29
2019-03-20T03:11:49.522Z,3.28
2019-03-20T03:14:22.963Z,3.25
2019-03-20T03:16:56.381Z,3.24
2019-03-20T03:19:29.839Z,3.22
2019-03-20T03:22:03.425Z,3.27
2019-03-20T03:24:36.736Z,3.30
2019-03-20T03:27:10.172Z,3.29
2019-03-20T03:29:43.598Z,3.29
2019-03-20T03:32:17.016Z,3.30
2019-03-20T03:34:50.364Z,3.30
2019-03-20T03:37:23.796Z,3.31
2019-03-20T03:39:57.178Z,3.34
2019-03-20T03:42:30.680Z,3.33
2019-03-20T03:45:06.664Z,3.35
2019-03-20T03:47:40.209Z,3.33
2019-03-20T03:50:13.710Z,3.30
2019-03-20T03:52:47.060Z,3.33
2019-03-20T03:55:20.408Z,3.37
2019-03-20T03:57:53.934Z,3.40
2019-03-20T04:00:27.272Z,3.39
2019-03-20T04:03:00.688Z,3.36
2019-03-20T04:05:34.140Z,3.37
2019-03-20T04:08:07.582Z,3.37
2019-03-20T04:10:41.061Z,3.34
2019-03-20T04:13:14.477Z,3.33
2019-03-20T04:15:47.868Z,3.34
2019-03-20T04:18:21.302Z,3.34
2019-03-20T04:20:54.637Z,3.34
2019-03-20T04:23:28.119Z,3.33
2019-03-20T04:26:01.495Z,3.35
2019-03-20T04:28:34.905Z,3.36
2019-03-20T04:31:08.305Z,3.37
2019-03-20T04:33:41.846Z,3.38
2019-03-20T04:36:15.184Z,3.38
2019-03-20T04:38:48.634Z,3.32
2019-03-20T04:41:22.031Z,3.29
2019-03-20T04:43:55.388Z,3.23
2019-03-20T04:46:28.807Z,3.20
2019-03-20T04:49:02.215Z,3.23
2019-03-20T04:51:35.578Z,3.24
2019-03-20T04:54:08.909Z,3.23
2019-03-20T04:56:42.269Z,3.25
2019-03-20T04:59:15.601Z,3.29
2019-03-20T05:01:49.033Z,3.23
2019-03-20T05:04:22.432Z,3.26
2019-03-20T05:06:59.167Z,3.28
2019-03-20T05:09:31.753Z,3.27
2019-03-20T05:12:05.177Z,3.29
2019-03-20T05:14:38.561Z,3.30
2019-03-20T05:17:12.046Z,3.34
2019-03-20T05:19:45.404Z,3.42
2019-03-20T05:22:18.821Z,3.47
2019-03-20T05:24:52.146Z,3.49
2019-03-20T05:27:25.580Z,3.52
2019-03-20T05:29:59.000Z,3.55
2019-03-20T05:32:33.373Z,3.57
2019-03-20T05:35:07.840Z,3.55
2019-03-20T05:37:41.327Z,3.55
2019-03-20T05:40:16.017Z,3.57
2019-03-20T05:42:49.452Z,3.56
2019-03-20T05:45:22.853Z,3.57
2019-03-20T05:47:56.245Z,3.53
2019-03-20T05:50:29.628Z,3.56
2019-03-20T05:53:03.071Z,3.60
2019-03-20T05:55:36.533Z,3.66
2019-03-20T05:58:09.953Z,3.71
2019-03-20T06:00:43.355Z,3.74
2019-03-20T06:03:16.778Z,3.80
2019-03-20T06:05:50.220Z,3.85
2019-03-20T06:08:23.718Z,3.90
2019-03-20T06:10:57.246Z,3.95
2019-03-20T06:13:30.636Z,4.03
2019-03-20T06:16:04.132Z,4.08
2019-03-20T06:18:37.573Z,4.13
2019-03-20T06:21:10.976Z,4.16
2019-03-20T06:23:44.399Z,4.31
2019-03-20T06:26:17.862Z,4.49
2019-03-20T06:28:51.230Z,4.65
2019-03-20T06:31:24.616Z,4.81
2019-03-20T06:33:58.013Z,4.91
2019-03-20T06:36:31.412Z,5.01
2019-03-20T06:39:06.933Z,5.18
2019-03-20T06:41:40.278Z,5.37
2019-03-20T06:44:13.745Z,5.50
2019-03-20T06:46:47.242Z,5.79
2019-03-20T06:49:20.647Z,6.23
2019-03-20T06:51:54.144Z,6.50
2019-03-20T06:54:27.576Z,6.78
2019-03-20T06:57:00.951Z,6.93
2019-03-20T06:59:37.577Z,7.16
2019-03-20T07:02:10.879Z,7.38
2019-03-20T07:05:07.352Z,7.56
2019-03-20T07:07:44.266Z,7.70
2019-03-20T07:10:18.922Z,8.06
2019-03-20T07:12:52.459Z,8.31
2019-03-20T07:15:25.800Z,8.56
2019-03-20T07:17:59.303Z,9.04
2019-03-20T07:20:32.721Z,9.98
2019-03-20T07:23:06.123Z,11.03
2019-03-20T07:25:40.114Z,11.39
2019-03-20T07:28:13.547Z,11.67
2019-03-20T07:30:46.974Z,11.53
2019-03-20T07:33:20.549Z,11.43
2019-03-20T07:35:54.026Z,11.58
2019-03-20T07:38:27.525Z,11.74
2019-03-20T07:41:01.016Z,12.46
2019-03-20T07:43:34.462Z,13.30
2019-03-20T07:46:07.896Z,14.08
2019-03-20T07:48:41.254Z,14.53
2019-03-20T07:51:14.578Z,14.11
2019-03-20T07:53:47.938Z,13.93
2019-03-20T07:56:21.443Z,13.27
2019-03-20T07:58:54.826Z,13.07
2019-03-20T08:01:28.167Z,13.00
2019-03-20T08:04:01.538Z,12.90
2019-03-20T08:06:34.925Z,12.65
2019-03-20T08:09:08.423Z,12.78
2019-03-20T08:11:41.785Z,12.77
2019-03-20T08:14:15.475Z,12.43
2019-03-20T08:16:48.866Z,12.31
2019-03-20T08:19:22.238Z,12.35
2019-03-20T08:21:55.571Z,12.53
2019-03-20T08:24:28.959Z,12.73
2019-03-20T08:27:02.310Z,12.79
2019-03-20T08:29:35.814Z,12.80
2019-03-20T08:32:09.147Z,12.77
2019-03-20T08:34:42.520Z,12.57
2019-03-20T08:37:16.034Z,12.57
2019-03-20T08:39:49.533Z,12.56
2019-03-20T08:42:23.043Z,12.81
2019-03-20T08:44:56.546Z,13.06
2019-03-20T08:47:29.983Z,13.06
2019-03-20T08:50:04.278Z,12.98
2019-03-20T08:52:37.722Z,13.10
2019-03-20T08:55:13.578Z,13.56
2019-03-20T08:57:47.117Z,13.91
2019-03-20T09:00:23.792Z,14.32
2019-03-20T09:02:57.200Z,15.73
2019-03-20T09:05:30.640Z,17.01
2019-03-20T09:08:04.159Z,18.61
2019-03-20T09:10:37.595Z,19.28
2019-03-20T09:13:10.993Z,19.21
2019-03-20T09:15:44.477Z,18.66
2019-03-20T09:18:17.954Z,18.32
2019-03-20T09:20:51.432Z,18.41
2019-03-20T09:23:24.842Z,18.08
2019-03-20T09:25:58.375Z,18.19
2019-03-20T09:28:31.726Z,18.44
2019-03-20T09:31:05.329Z,18.74
2019-03-20T09:33:38.818Z,19.34
2019-03-20T09:36:12.145Z,20.46
2019-03-20T09:38:45.506Z,21.63
2019-03-20T09:41:18.962Z,23.86
2019-03-20T09:43:52.401Z,25.86
2019-03-20T09:46:25.833Z,27.91
2019-03-20T09:48:59.400Z,28.66
2019-03-20T09:51:32.757Z,27.52
2019-03-20T09:54:07.689Z,26.96
2019-03-20T09:56:41.078Z,27.58
2019-03-20T09:59:14.519Z,27.93
2019-03-20T10:01:47.879Z,28.06
2019-03-20T10:04:21.383Z,27.92
2019-03-20T10:06:54.956Z,26.65
2019-03-20T10:09:28.377Z,25.06
2019-03-20T10:12:01.794Z,24.23
2019-03-20T10:14:35.253Z,23.04
2019-03-20T10:17:09.102Z,21.96
2019-03-20T10:19:44.565Z,21.58
2019-03-20T10:22:18.098Z,21.00
2019-03-20T10:24:51.463Z,21.07
2019-03-20T10:27:24.926Z,21.01
2019-03-20T10:29:58.359Z,20.63
2019-03-20T10:32:31.681Z,20.65
2019-03-20T10:35:07.995Z,20.19
2019-03-20T10:37:41.423Z,19.79
2019-03-20T10:40:28.676Z,19.49
2019-03-20T10:43:02.181Z,19.27
2019-03-20T10:45:35.709Z,19.40
2019-03-20T10:48:09.059Z,19.48
2019-03-20T10:50:42.566Z,19.65
2019-03-20T10:53:16.032Z,19.55
2019-03-20T10:55:51.775Z,19.73
2019-03-20T10:58:24.635Z,19.96
2019-03-20T11:00:58.242Z,19.62
2019-03-20T11:03:31.631Z,18.81
2019-03-20T11:06:05.364Z,18.21
2019-03-20T11:08:39.009Z,17.83
2019-03-20T11:11:12.411Z,17.83
2019-03-20T11:13:45.793Z,17.67
2019-03-20T11:16:19.336Z,17.63
2019-03-20T11:18:52.682Z,17.51
2019-03-20T11:21:26.119Z,17.29
2019-03-20T11:23:59.518Z,17.12
2019-03-20T11:26:32.977Z,17.07
2019-03-20T11:29:06.613Z,16.86
2019-03-20T11:31:40.182Z,16.96
2019-03-20T11:34:13.584Z,17.01
2019-03-20T11:36:47.081Z,17.00
2019-03-20T11:39:29.150Z,17.12
2019-03-20T11:41:55.776Z,16.90
2019-03-20T11:44:29.129Z,16.91
2019-03-20T11:47:02.527Z,16.73
2019-03-20T11:49:35.991Z,16.53
2019-03-20T11:52:09.389Z,16.44
2019-03-20T11:54:42.955Z,16.46
2019-03-20T11:57:16.489Z,16.41
2019-03-20T11:59:49.981Z,16.44
2019-03-20T12:02:28.032Z,16.35
2019-03-20T12:04:58.599Z,16.35
2019-03-20T12:07:31.964Z,16.24
2019-03-20T12:10:31.019Z,16.23
2019-03-20T12:13:04.629Z,16.28
2019-03-20T12:15:38.028Z,16.28
2019-03-20T12:18:11.498Z,15.96
2019-03-20T12:20:44.811Z,16.08
2019-03-20T12:23:18.298Z,16.15
2019-03-20T12:25:51.706Z,16.24
2019-03-20T12:28:25.184Z,15.94
2019-03-20T12:30:58.542Z,16.10
2019-03-20T12:33:31.993Z,16.17
2019-03-20T12:36:05.431Z,16.14
2019-03-20T12:38:38.879Z,16.16
2019-03-20T12:41:12.273Z,16.19
2019-03-20T12:43:45.724Z,16.20
2019-03-20T12:46:19.172Z,16.01
2019-03-20T12:48:52.651Z,16.09
2019-03-20T12:51:26.221Z,16.03
2019-03-20T12:53:59.650Z,16.13
2019-03-20T12:56:33.115Z,16.02
2019-03-20T12:59:07.683Z,15.75
2019-03-20T13:01:41.059Z,15.74
2019-03-20T13:04:14.504Z,15.80
2019-03-20T13:06:47.888Z,15.63
2019-03-20T13:09:21.267Z,15.63
2019-03-20T13:11:54.697Z,15.47
2019-03-20T13:14:28.295Z,15.44
2019-03-20T13:17:01.665Z,15.39
2019-03-20T13:19:35.186Z,15.48
2019-03-20T13:22:08.567Z,15.55
2019-03-20T13:24:42.009Z,15.43
2019-03-20T13:27:15.494Z,15.41
2019-03-20T13:29:48.952Z,15.47
2019-03-20T13:32:22.437Z,15.48
2019-03-20T13:34:55.912Z,15.53
2019-03-20T13:37:29.336Z,15.37
2019-03-20T13:40:02.749Z,15.41
2019-03-20T13:42:36.228Z,15.38
2019-03-20T13:45:18.587Z,15.43
2019-03-20T13:47:51.941Z,15.32
2019-03-20T13:50:25.427Z,15.44
2019-03-20T13:52:58.941Z,15.21
2019-03-20T13:55:32.428Z,15.39
2019-03-20T13:58:05.839Z,15.35
2019-03-20T14:00:39.268Z,15.49
2019-03-20T14:03:12.714Z,15.31
2019-03-20T14:05:46.265Z,15.30
2019-03-20T14:08:19.731Z,15.35
2019-03-20T14:10:53.119Z,15.55
2019-03-20T14:13:26.526Z,15.59
2019-03-20T14:15:59.947Z,15.47
2019-03-20T14:18:33.371Z,15.42
2019-03-20T14:21:07.057Z,15.39
2019-03-20T14:23:40.491Z,15.46
2019-03-20T14:26:13.903Z,15.31
2019-03-20T14:28:47.272Z,15.16
2019-03-20T14:31:20.796Z,15.17
2019-03-20T14:33:54.281Z,15.15
2019-03-20T14:36:27.697Z,15.19
2019-03-20T14:39:01.031Z,15.15
2019-03-20T14:41:34.984Z,15.36
2019-03-20T14:44:08.385Z,15.22
2019-03-20T14:46:41.828Z,15.27
2019-03-20T14:49:15.248Z,15.40
2019-03-20T14:51:48.770Z,15.21
2019-03-20T14:54:22.176Z,15.23
2019-03-20T14:56:55.674Z,15.27
2019-03-20T14:59:29.140Z,15.40
2019-03-20T15:02:02.536Z,15.34
2019-03-20T15:04:35.932Z,15.36
2019-03-20T15:07:09.393Z,15.18
2019-03-20T15:09:42.856Z,15.08
2019-03-20T15:12:16.290Z,14.90
2019-03-20T15:14:49.733Z,14.86
2019-03-20T15:17:23.172Z,15.01
2019-03-20T15:19:56.514Z,15.07
2019-03-20T15:22:30.075Z,15.16
2019-03-20T15:25:03.617Z,15.11
2019-03-20T15:27:37.120Z,14.97
2019-03-20T15:30:40.179Z,14.91
2019-03-20T15:33:13.505Z,14.96
2019-03-20T15:35:46.927Z,14.91
2019-03-20T15:38:20.312Z,14.76
2019-03-20T15:40:56.409Z,14.84
2019-03-20T15:43:28.833Z,14.89
2019-03-20T15:46:02.328Z,14.99
2019-03-20T15:48:35.654Z,14.98
2019-03-20T15:51:09.268Z,14.93
2019-03-20T15:53:42.614Z,14.88
2019-03-20T15:56:16.039Z,14.88
2019-03-20T15:58:49.377Z,14.71
2019-03-20T16:01:22.727Z,14.58
2019-03-20T16:03:56.156Z,14.56
2019-03-20T16:06:29.652Z,14.69
2019-03-20T16:09:04.454Z,14.50
2019-03-20T16:11:37.874Z,14.57
2019-03-20T16:14:11.269Z,14.62
2019-03-20T16:16:44.661Z,14.67
2019-03-20T16:19:18.040Z,14.71
2019-03-20T16:21:51.514Z,14.70
2019-03-20T16:24:24.924Z,14.71
2019-03-20T16:26:58.371Z,14.67
2019-03-20T16:29:31.930Z,14.67
2019-03-20T16:32:05.434Z,14.66
2019-03-20T16:34:38.868Z,14.64
2019-03-20T16:37:12.461Z,14.41
2019-03-20T16:39:45.891Z,14.40
2019-03-20T16:42:19.419Z,14.49
2019-03-20T16:44:52.767Z,14.48
2019-03-20T16:47:26.233Z,14.45
2019-03-20T16:49:59.651Z,14.37
2019-03-20T16:52:33.076Z,14.43
2019-03-20T16:55:09.422Z,14.43
2019-03-20T16:57:42.975Z,14.41
2019-03-20T17:00:25.173Z,14.42
2019-03-20T17:02:58.771Z,14.45
2019-03-20T17:05:32.179Z,14.49
2019-03-20T17:08:05.582Z,14.51
2019-03-20T17:10:40.621Z,14.32
2019-03-20T17:13:14.141Z,14.38
2019-03-20T17:15:47.536Z,14.37
2019-03-20T17:18:20.921Z,14.35
2019-03-20T17:20:54.393Z,14.30
2019-03-20T17:23:27.828Z,14.35
2019-03-20T17:26:01.171Z,14.32
2019-03-20T17:28:34.672Z,14.16
2019-03-20T17:31:08.097Z,14.14
2019-03-20T17:33:41.561Z,14.23
2019-03-20T17:36:14.938Z,14.30
2019-03-20T17:38:48.394Z,14.32
2019-03-20T17:41:21.762Z,14.33
2019-03-20T17:43:55.214Z,14.39
2019-03-20T17:46:28.666Z,14.41
2019-03-20T17:49:02.104Z,14.32
2019-03-20T17:51:35.523Z,14.33
2019-03-20T17:54:09.064Z,14.35
2019-03-20T17:56:42.419Z,14.34
2019-03-20T17:59:15.863Z,14.37
2019-03-20T18:01:49.203Z,14.39
2019-03-20T18:04:22.657Z,14.35
2019-03-20T18:06:56.150Z,14.40
2019-03-20T18:09:29.758Z,14.43
2019-03-20T18:12:03.450Z,14.46
2019-03-20T18:14:36.854Z,14.42
2019-03-20T18:17:10.278Z,14.42
2019-03-20T18:19:43.753Z,14.43
2019-03-20T18:22:17.347Z,14.31
2019-03-20T18:24:50.800Z,14.35
2019-03-20T18:27:24.301Z,14.42
2019-03-20T18:29:57.765Z,14.37
2019-03-20T18:32:31.147Z,14.30
2019-03-20T18:35:06.578Z,14.36
2019-03-20T18:37:39.952Z,14.32
2019-03-20T18:40:16.490Z,14.38
2019-03-20T18:42:49.965Z,14.13
2019-03-20T18:45:24.445Z,14.24
2019-03-20T18:47:57.952Z,14.30
2019-03-20T18:50:31.367Z,14.30
2019-03-20T18:53:04.909Z,14.30
2019-03-20T18:55:38.833Z,14.28
2019-03-20T18:58:12.313Z,14.24
2019-03-20T19:00:45.850Z,14.21
2019-03-20T19:03:22.468Z,14.19
2019-03-20T19:06:07.591Z,14.15
2019-03-20T19:08:42.639Z,14.17
2019-03-20T19:11:16.107Z,14.19
2019-03-20T19:13:49.609Z,14.05
2019-03-20T19:16:22.988Z,14.11
2019-03-20T19:18:56.472Z,14.14
2019-03-20T19:21:29.955Z,14.13
2019-03-20T19:24:04.876Z,14.20
2019-03-20T19:26:38.210Z,14.20
2019-03-20T19:29:11.747Z,14.15
2019-03-20T19:31:45.103Z,14.22
2019-03-20T19:34:18.549Z,14.24
2019-03-20T19:36:51.886Z,14.26
2019-03-20T19:39:25.376Z,14.19
2019-03-20T19:41:58.895Z,14.14
2019-03-20T19:44:32.408Z,14.19
2019-03-20T19:47:05.809Z,14.23
2019-03-20T19:49:39.276Z,14.30
2019-03-20T19:52:12.683Z,14.35
2019-03-20T19:54:46.085Z,14.32
2019-03-20T19:57:19.573Z,14.26
2019-03-20T19:59:53.197Z,14.24
2019-03-20T20:02:26.538Z,14.29
2019-03-20T20:05:00.062Z,14.31
2019-03-20T20:07:33.504Z,14.35
2019-03-20T20:10:09.622Z,14.38
2019-03-20T20:12:43.162Z,14.37
2019-03-20T20:15:22.180Z,14.27
2019-03-20T20:17:55.721Z,14.30
2019-03-20T20:20:34.600Z,14.34
2019-03-20T20:23:08.021Z,14.35
2019-03-20T20:25:41.675Z,14.36
2019-03-20T20:28:15.029Z,14.36
2019-03-20T20:30:48.493Z,14.38
2019-03-20T20:33:21.935Z,14.38
2019-03-20T20:35:55.288Z,14.39
2019-03-20T20:38:28.706Z,14.38
2019-03-20T20:41:02.070Z,14.39
2019-03-20T20:43:35.543Z,14.40
2019-03-20T20:46:08.916Z,14.38
2019-03-20T20:48:42.311Z,14.42
2019-03-20T20:51:15.680Z,14.28
2019-03-20T20:53:49.374Z,14.26
2019-03-20T20:56:22.911Z,14.27
2019-03-20T20:58:56.380Z,14.28
2019-03-20T21:01:30.238Z,14.35
2019-03-20T21:04:03.817Z,14.36
2019-03-20T21:06:37.337Z,14.32
2019-03-20T21:09:10.745Z,14.38
2019-03-20T21:11:44.191Z,14.24
2019-03-20T21:14:17.540Z,14.30
2019-03-20T21:16:50.980Z,14.37
2019-03-20T21:19:34.617Z,14.36
2019-03-20T21:22:45.818Z,14.28
2019-03-20T21:25:19.255Z,14.29
2019-03-20T21:28:17.146Z,14.28
2019-03-20T21:30:53.960Z,14.27
2019-03-20T21:33:45.148Z,14.23
2019-03-20T21:36:54.625Z,14.25
2019-03-20T21:39:28.156Z,14.29
2019-03-20T21:42:16.896Z,14.30
2019-03-20T21:45:08.783Z,14.36
2019-03-20T21:47:42.149Z,14.32
2019-03-20T21:50:42.654Z,14.35
2019-03-20T21:53:50.893Z,14.27
2019-03-20T21:56:42.567Z,14.28
2019-03-20T21:59:35.423Z,14.32
2019-03-20T22:02:47.499Z,14.31
2019-03-20T22:05:49.657Z,14.22
2019-03-20T22:08:23.091Z,14.27
2019-03-20T22:11:05.032Z,14.18
2019-03-20T22:13:44.397Z,14.24
2019-03-20T22:16:25.917Z,14.28
2019-03-20T22:19:24.790Z,14.30
2019-03-20T22:22:28.505Z,14.23
2019-03-20T22:25:25.849Z,14.31
2019-03-20T22:28:31.357Z,14.32
2019-03-20T22:31:04.730Z,14.34
2019-03-20T22:34:14.424Z,14.30
2019-03-20T22:36:47.795Z,14.26
2019-03-20T22:39:39.530Z,14.10
2019-03-20T22:42:18.586Z,14.04
2019-03-20T22:45:06.714Z,14.03
2019-03-20T22:47:59.479Z,14.01
2019-03-20T22:50:50.990Z,14.00
2019-03-20T22:53:30.381Z,14.03
2019-03-20T22:56:09.421Z,13.92
2019-03-20T22:58:41.973Z,13.95
2019-03-20T23:01:18.893Z,13.96
2019-03-20T23:04:00.985Z,13.88
2019-03-20T23:06:34.461Z,13.94
2019-03-20T23:09:08.851Z,14.01
2019-03-20T23:11:42.393Z,13.99
2019-03-20T23:14:15.846Z,13.98
2019-03-20T23:16:49.210Z,13.99
2019-03-20T23:19:22.641Z,14.02
2019-03-20T23:21:56.114Z,13.94
2019-03-20T23:24:29.593Z,13.94
2019-03-20T23:27:06.124Z,13.92
2019-03-20T23:29:39.562Z,13.92
2019-03-20T23:32:12.999Z,13.93
2019-03-20T23:34:46.366Z,13.92
2019-03-20T23:37:19.804Z,13.91
2019-03-20T23:39:53.321Z,13.89
2019-03-20T23:42:26.760Z,13.90
2019-03-20T23:45:00.181Z,13.91
2019-03-20T23:47:37.142Z,13.93
2019-03-20T23:50:11.814Z,13.92
2019-03-20T23:52:45.261Z,13.94
2019-03-20T23:55:18.742Z,13.91
2019-03-20T23:57:52.203Z,13.83
